Time;durP1;ratioP1;P1;durP2;ratioP2;P2;SDS_P1;SDS_P2;PMS_P1;PMS_P2;Temp;Humidity;BMP_temperature;BMP_pressure;BME280_temperature;BME280_humidity;BME280_pressure;Samples;Min_cycle;Max_cycle;Signal;HPM_P1;HPM_P2
2024/01/03 00:00:06;;;;;;;0.30;0.30;;;8.10;99.90;;;;;;4928192;29;20182;-60
2024/01/03 00:02:32;;;;;;;0.30;0.30;;;8.00;99.90;;;;;;4931560;29;20186;-60
2024/01/03 00:04:58;;;;;;;0.77;0.57;;;8.00;99.90;;;;;;4937351;29;20180;-61
2024/01/03 00:07:24;;;;;;;0.30;0.30;;;8.10;99.90;;;;;;4936446;29;20202;-61
2024/01/03 00:10:00;;;;;;;0.40;0.40;;;8.10;99.90;;;;;;4936861;29;20202;-61
2024/01/03 00:12:26;;;;;;;0.52;0.52;;;8.10;99.90;;;;;;4936534;29;20410;-60
2024/01/03 00:14:52;;;;;;;0.50;0.50;;;8.10;99.90;;;;;;4936901;29;20179;-60
2024/01/03 00:17:20;;;;;;;1.38;0.43;;;8.20;99.90;;;;;;4936648;29;20226;-61
2024/01/03 00:19:51;;;;;;;0.50;0.50;;;8.10;99.90;;;;;;4937106;29;20186;-61
2024/01/03 00:22:17;;;;;;;0.52;0.43;;;8.00;99.90;;;;;;4937777;29;20648;-61
2024/01/03 00:24:47;;;;;;;0.30;0.30;;;8.00;99.90;;;;;;4937355;29;20190;-61
2024/01/03 00:27:13;;;;;;;0.40;0.40;;;8.20;99.90;;;;;;4919802;29;20204;-60
2024/01/03 00:29:52;;;;;;;0.50;0.50;;;8.10;99.90;;;;;;4937205;29;20206;-61
2024/01/03 00:32:22;;;;;;;0.50;0.50;;;8.10;99.90;;;;;;4937103;29;20182;-61
2024/01/03 00:34:48;;;;;;;0.30;0.30;;;8.10;99.90;;;;;;4936884;29;20170;-60
2024/01/03 00:37:23;;;;;;;0.53;0.43;;;8.10;99.90;;;;;;4939593;29;20702;-59
2024/01/03 00:39:49;;;;;;;0.40;0.40;;;8.00;99.90;;;;;;4941924;29;20839;-60
2024/01/03 00:42:14;;;;;;;1.53;1.43;;;7.90;99.90;;;;;;4940983;29;20237;-61
2024/01/03 00:44:40;;;;;;;0.30;0.30;;;7.90;99.90;;;;;;4941827;29;20182;-60
2024/01/03 00:47:06;;;;;;;0.50;0.50;;;7.80;99.90;;;;;;4941587;29;20186;-60
2024/01/03 00:49:33;;;;;;;0.50;0.50;;;7.80;99.90;;;;;;4941590;29;20627;-60
2024/01/03 00:52:00;;;;;;;0.30;0.30;;;8.00;99.90;;;;;;4941190;29;20237;-60
2024/01/03 00:54:26;;;;;;;0.30;0.30;;;8.00;99.90;;;;;;4941825;29;20265;-60
2024/01/03 00:56:53;;;;;;;0.30;0.30;;;7.70;99.90;;;;;;4941229;29;20205;-60
2024/01/03 00:59:19;;;;;;;1.08;0.40;;;7.70;99.90;;;;;;4941440;29;20254;-61
2024/01/03 01:01:45;;;;;;;0.85;0.60;;;7.80;99.90;;;;;;4941982;29;20175;-61
2024/01/03 01:04:12;;;;;;;0.93;0.57;;;8.00;99.90;;;;;;4940379;29;20640;-61
2024/01/03 01:06:39;;;;;;;0.30;0.30;;;8.00;99.90;;;;;;4940705;29;20198;-61
2024/01/03 01:09:06;;;;;;;0.30;0.30;;;8.00;99.90;;;;;;4941080;29;20273;-61
2024/01/03 01:11:31;;;;;;;0.75;0.75;;;8.00;99.90;;;;;;4941238;29;20273;-61
2024/01/03 01:13:57;;;;;;;0.30;0.30;;;8.10;99.90;;;;;;4940850;29;20190;-61
2024/01/03 01:16:23;;;;;;;0.30;0.30;;;8.20;99.90;;;;;;4940746;29;20194;-61
2024/01/03 01:18:48;;;;;;;0.40;0.40;;;8.10;99.90;;;;;;4940702;29;20185;-61
2024/01/03 01:21:14;;;;;;;0.30;0.30;;;8.00;99.90;;;;;;4940374;29;20184;-61
2024/01/03 01:23:42;;;;;;;0.63;0.50;;;7.90;99.90;;;;;;4940428;29;20603;-61
2024/01/03 01:26:08;;;;;;;0.50;0.50;;;7.90;99.90;;;;;;4940292;29;20587;-61
2024/01/03 01:28:34;;;;;;;0.52;0.40;;;7.90;99.90;;;;;;4940642;29;20294;-61
2024/01/03 01:30:59;;;;;;;0.50;0.50;;;7.90;99.90;;;;;;4939803;29;20201;-60
2024/01/03 01:33:25;;;;;;;0.40;0.40;;;8.00;99.90;;;;;;4940643;29;20177;-61
2024/01/03 01:35:51;;;;;;;0.40;0.40;;;8.00;99.90;;;;;;4943683;28;20261;-60
2024/01/03 01:38:16;;;;;;;0.30;0.30;;;8.10;99.90;;;;;;4958974;29;20252;-61
2024/01/03 01:40:42;;;;;;;0.30;0.30;;;8.10;99.90;;;;;;4959829;29;20595;-61
2024/01/03 01:43:08;;;;;;;0.40;0.40;;;8.00;99.90;;;;;;4959925;29;20178;-61
2024/01/03 01:45:34;;;;;;;0.40;0.40;;;7.90;99.90;;;;;;4959108;28;20675;-61
2024/01/03 01:48:00;;;;;;;0.47;0.47;;;8.10;99.90;;;;;;4958664;28;20180;-60
2024/01/03 01:50:26;;;;;;;0.50;0.50;;;8.30;99.90;;;;;;4958449;29;20173;-59
2024/01/03 01:52:53;;;;;;;0.30;0.30;;;8.30;99.90;;;;;;4959025;29;20173;-60
2024/01/03 01:55:20;;;;;;;0.60;0.60;;;8.40;99.90;;;;;;4958852;29;20247;-60
2024/01/03 01:57:47;;;;;;;0.38;0.38;;;8.30;99.90;;;;;;4959020;28;20216;-61
2024/01/03 02:00:13;;;;;;;0.60;0.60;;;8.20;99.90;;;;;;4958780;29;20636;-60
2024/01/03 02:02:41;;;;;;;0.30;0.30;;;8.10;99.90;;;;;;4958313;29;20237;-60
2024/01/03 02:05:09;;;;;;;0.30;0.30;;;8.30;99.90;;;;;;4959391;29;20421;-60
2024/01/03 02:07:35;;;;;;;0.45;0.45;;;8.30;99.90;;;;;;4958951;28;20208;-60
2024/01/03 02:10:02;;;;;;;0.30;0.30;;;8.40;99.90;;;;;;4958672;29;20199;-60
2024/01/03 02:12:28;;;;;;;0.60;0.60;;;8.40;99.90;;;;;;4958649;29;20173;-60
2024/01/03 02:14:54;;;;;;;0.40;0.40;;;8.50;99.90;;;;;;4959500;29;20229;-60
2024/01/03 02:17:21;;;;;;;0.30;0.30;;;8.50;99.90;;;;;;4958414;28;20593;-61
2024/01/03 02:19:46;;;;;;;0.40;0.40;;;8.30;99.90;;;;;;4958820;29;20184;-61
2024/01/03 02:22:12;;;;;;;0.40;0.40;;;8.40;99.90;;;;;;4958202;29;20186;-60
2024/01/03 02:24:38;;;;;;;0.50;0.50;;;8.40;99.90;;;;;;4958795;29;20174;-60
2024/01/03 02:27:04;;;;;;;0.70;0.70;;;8.40;99.90;;;;;;4958606;28;20672;-60
2024/01/03 02:29:29;;;;;;;1.63;0.87;;;8.40;99.90;;;;;;4958427;29;20240;-61
2024/01/03 02:31:55;;;;;;;0.30;0.30;;;8.60;99.90;;;;;;4958255;29;20186;-61
2024/01/03 02:34:20;;;;;;;0.30;0.30;;;8.50;99.90;;;;;;4958632;29;20205;-61
2024/01/03 02:36:51;;;;;;;0.40;0.40;;;8.50;99.90;;;;;;4958129;28;20204;-61
2024/01/03 02:39:16;;;;;;;0.50;0.40;;;8.50;99.90;;;;;;4958190;29;20547;-61
2024/01/03 02:41:42;;;;;;;0.50;0.50;;;8.50;99.90;;;;;;4958466;29;20186;-61
2024/01/03 02:44:08;;;;;;;0.40;0.40;;;8.60;99.90;;;;;;4958587;29;20185;-60
2024/01/03 02:46:33;;;;;;;0.30;0.30;;;8.40;99.90;;;;;;4959138;28;20193;-60
2024/01/03 02:48:59;;;;;;;0.40;0.40;;;8.50;99.90;;;;;;4959138;29;20211;-60
2024/01/03 02:51:24;;;;;;;0.30;0.30;;;8.50;99.90;;;;;;4958964;29;20169;-61
2024/01/03 02:53:50;;;;;;;0.40;0.40;;;8.40;99.90;;;;;;4958196;29;20234;-61
2024/01/03 02:56:16;;;;;;;0.30;0.30;;;8.40;99.90;;;;;;4958474;28;20225;-61
2024/01/03 02:58:41;;;;;;;0.30;0.30;;;8.30;99.90;;;;;;4957894;28;20424;-60
2024/01/03 03:01:07;;;;;;;0.30;0.30;;;8.40;99.90;;;;;;4958070;29;20177;-61
2024/01/03 03:03:33;;;;;;;0.40;0.40;;;8.50;99.90;;;;;;4958245;29;20258;-61
2024/01/03 03:06:00;;;;;;;0.40;0.40;;;8.50;99.90;;;;;;4958078;28;20201;-61
2024/01/03 03:08:25;;;;;;;0.30;0.30;;;8.40;99.90;;;;;;4958013;29;20460;-61
2024/01/03 03:10:51;;;;;;;0.30;0.30;;;8.30;99.90;;;;;;4957491;29;20670;-61
2024/01/03 03:13:17;;;;;;;0.30;0.30;;;8.30;99.90;;;;;;4958011;29;20264;-61
2024/01/03 03:15:43;;;;;;;0.30;0.30;;;8.30;99.90;;;;;;4956725;28;20173;-60
2024/01/03 03:18:09;;;;;;;0.30;0.30;;;8.10;99.90;;;;;;4958417;29;20205;-61
2024/01/03 03:20:35;;;;;;;0.30;0.30;;;8.20;99.90;;;;;;4957953;29;20416;-61
2024/01/03 03:23:00;;;;;;;0.40;0.40;;;8.30;99.90;;;;;;4957912;29;20242;-60
2024/01/03 03:25:26;;;;;;;0.30;0.30;;;8.30;99.90;;;;;;4940795;29;20248;-59
2024/01/03 03:27:51;;;;;;;0.30;0.30;;;8.20;99.90;;;;;;4938485;29;20178;-61
2024/01/03 03:30:17;;;;;;;13.43;0.60;;;8.10;99.90;;;;;;4938434;29;20205;-60
2024/01/03 03:32:45;;;;;;;0.30;0.30;;;8.20;99.90;;;;;;4938377;29;20547;-60
2024/01/03 03:35:14;;;;;;;0.30;0.30;;;8.20;99.90;;;;;;4939235;29;20410;-60
2024/01/03 03:37:41;;;;;;;0.30;0.30;;;8.10;99.90;;;;;;4938659;29;20256;-60
2024/01/03 03:40:10;;;;;;;0.40;0.40;;;8.10;99.90;;;;;;4938347;29;20181;-60
2024/01/03 03:42:36;;;;;;;0.35;0.35;;;8.20;99.90;;;;;;4937905;29;20246;-60
2024/01/03 03:45:02;;;;;;;0.30;0.30;;;8.20;99.90;;;;;;4938452;29;20314;-61
2024/01/03 03:47:27;;;;;;;0.30;0.30;;;8.10;99.90;;;;;;4938658;29;20252;-61
2024/01/03 03:49:53;;;;;;;0.67;0.60;;;8.00;99.90;;;;;;4937742;29;20205;-59
2024/01/03 03:52:19;;;;;;;0.30;0.30;;;8.00;99.90;;;;;;4937635;29;20270;-60
2024/01/03 03:54:44;;;;;;;0.40;0.40;;;7.90;99.90;;;;;;4937745;29;20414;-61
2024/01/03 03:57:10;;;;;;;0.43;0.43;;;7.80;99.90;;;;;;4937582;29;20213;-60
2024/01/03 03:59:36;;;;;;;0.53;0.47;;;7.80;99.90;;;;;;4937673;29;20182;-61
2024/01/03 04:02:01;;;;;;;0.50;0.50;;;8.00;99.90;;;;;;4937527;29;20174;-61
2024/01/03 04:04:27;;;;;;;0.60;0.60;;;8.20;99.90;;;;;;4937180;29;20261;-61
2024/01/03 04:06:52;;;;;;;0.60;0.60;;;8.30;99.90;;;;;;4936913;29;20193;-62
2024/01/03 04:09:19;;;;;;;0.70;0.70;;;8.40;99.90;;;;;;4937323;29;20234;-61
2024/01/03 04:11:45;;;;;;;0.40;0.40;;;8.40;99.90;;;;;;4936921;29;20178;-61
2024/01/03 04:14:11;;;;;;;0.43;0.43;;;8.20;99.90;;;;;;4936695;29;20257;-61
2024/01/03 04:16:37;;;;;;;0.77;0.70;;;8.20;99.90;;;;;;4936909;29;20430;-61
2024/01/03 04:19:03;;;;;;;0.40;0.40;;;8.20;99.90;;;;;;4936514;29;20178;-61
2024/01/03 04:21:30;;;;;;;0.40;0.40;;;8.30;99.90;;;;;;4935954;29;20920;-61
2024/01/03 04:23:55;;;;;;;0.40;0.40;;;8.20;99.90;;;;;;4936962;29;20560;-61
2024/01/03 04:26:21;;;;;;;0.43;0.40;;;8.30;99.90;;;;;;4936797;29;20198;-61
2024/01/03 04:28:47;;;;;;;0.47;0.40;;;8.40;99.90;;;;;;4937001;29;20204;-61
2024/01/03 04:31:13;;;;;;;0.40;0.40;;;8.40;99.90;;;;;;4936755;29;20551;-62
2024/01/03 04:33:38;;;;;;;0.40;0.40;;;8.50;99.90;;;;;;4936774;29;20182;-61
2024/01/03 04:36:04;;;;;;;3.33;0.50;;;8.30;99.90;;;;;;4936839;29;20190;-61
2024/01/03 04:38:30;;;;;;;2.30;1.03;;;8.30;99.90;;;;;;4937175;29;20182;-61
2024/01/03 04:40:55;;;;;;;0.97;0.50;;;8.40;99.90;;;;;;4936811;29;20429;-61
2024/01/03 04:43:21;;;;;;;1.90;0.70;;;8.30;99.90;;;;;;4936663;29;20182;-61
2024/01/03 04:45:49;;;;;;;0.50;0.50;;;8.30;99.90;;;;;;4936761;29;20584;-61
2024/01/03 04:48:15;;;;;;;0.88;0.88;;;8.20;99.90;;;;;;4936326;29;20260;-61
2024/01/03 04:50:41;;;;;;;0.80;0.80;;;8.20;99.90;;;;;;4935921;29;20178;-62
2024/01/03 04:53:07;;;;;;;0.30;0.30;;;8.30;99.90;;;;;;4936350;29;20265;-61
2024/01/03 04:55:32;;;;;;;0.50;0.50;;;8.10;99.90;;;;;;4936067;29;20171;-61
2024/01/03 04:57:59;;;;;;;1.63;1.07;;;8.10;99.90;;;;;;4935488;29;20462;-61
2024/01/03 05:00:25;;;;;;;0.60;0.50;;;8.00;99.90;;;;;;4937592;29;20174;-61
2024/01/03 05:02:51;;;;;;;0.63;0.63;;;7.90;99.90;;;;;;4936979;29;20190;-61
2024/01/03 05:05:17;;;;;;;0.40;0.40;;;8.00;99.90;;;;;;4936457;29;20265;-61
2024/01/03 05:07:43;;;;;;;0.40;0.40;;;8.10;99.90;;;;;;4936532;29;20230;-61
2024/01/03 05:10:09;;;;;;;1.73;1.27;;;8.10;99.90;;;;;;4935661;29;20701;-61
2024/01/03 05:12:36;;;;;;;0.93;0.93;;;8.00;99.90;;;;;;4935510;29;20185;-61
2024/01/03 05:15:05;;;;;;;2.05;0.80;;;8.00;99.90;;;;;;4936532;29;20174;-61
2024/01/03 05:17:30;;;;;;;6.53;1.10;;;8.20;99.90;;;;;;4936480;29;20190;-61
2024/01/03 05:19:57;;;;;;;0.50;0.50;;;8.20;99.90;;;;;;4936233;29;20568;-61
2024/01/03 05:22:23;;;;;;;0.40;0.40;;;8.30;99.90;;;;;;4936467;29;20596;-61
2024/01/03 05:24:48;;;;;;;0.50;0.50;;;8.20;99.90;;;;;;4939097;29;20317;-61
2024/01/03 05:27:14;;;;;;;0.30;0.30;;;8.10;99.90;;;;;;4939196;29;20808;-61
2024/01/03 05:29:40;;;;;;;0.40;0.40;;;8.20;99.90;;;;;;4939823;29;20213;-61
2024/01/03 05:32:05;;;;;;;3.67;1.53;;;8.30;99.90;;;;;;4939264;29;20951;-61
2024/01/03 05:34:31;;;;;;;0.60;0.53;;;8.30;99.90;;;;;;4939299;29;20182;-61
2024/01/03 05:36:57;;;;;;;1.43;1.17;;;8.30;99.90;;;;;;4939350;29;20217;-61
2024/01/03 05:39:22;;;;;;;2.03;1.90;;;8.30;99.90;;;;;;4939181;29;20178;-61
2024/01/03 05:41:49;;;;;;;0.30;0.30;;;8.20;99.90;;;;;;4938528;29;20191;-61
2024/01/03 05:44:14;;;;;;;15.45;0.80;;;8.00;99.90;;;;;;4938997;29;20192;-61
2024/01/03 05:46:40;;;;;;;0.50;0.50;;;8.00;99.90;;;;;;4938791;29;20202;-61
2024/01/03 05:49:06;;;;;;;2.22;0.68;;;8.00;99.90;;;;;;4939376;29;20198;-61
2024/01/03 05:51:32;;;;;;;1.03;0.70;;;8.10;99.90;;;;;;4938922;29;20227;-61
2024/01/03 05:53:57;;;;;;;0.40;0.40;;;8.10;99.90;;;;;;4938673;29;20174;-61
2024/01/03 05:56:23;;;;;;;0.30;0.30;;;8.00;99.90;;;;;;4939035;29;20186;-61
2024/01/03 05:58:48;;;;;;;1.43;1.03;;;8.10;99.90;;;;;;4938543;29;20193;-61
2024/01/03 06:01:15;;;;;;;0.30;0.30;;;8.10;99.90;;;;;;4939473;29;20186;-61
2024/01/03 06:03:41;;;;;;;0.80;0.40;;;8.10;99.90;;;;;;4939685;29;20192;-61
2024/01/03 06:06:07;;;;;;;2.97;1.67;;;7.90;99.90;;;;;;4938445;29;20572;-61
2024/01/03 06:08:32;;;;;;;0.83;0.83;;;7.90;99.90;;;;;;4938853;29;20194;-61
2024/01/03 06:10:58;;;;;;;0.30;0.30;;;7.70;99.90;;;;;;4938271;29;20636;-61
2024/01/03 06:13:23;;;;;;;0.40;0.40;;;7.60;99.90;;;;;;4938606;29;20204;-61
2024/01/03 06:15:49;;;;;;;0.47;0.47;;;7.40;99.90;;;;;;4938387;29;20198;-61
2024/01/03 06:18:15;;;;;;;0.37;0.37;;;7.50;99.90;;;;;;4939020;29;20181;-61
2024/01/03 06:20:41;;;;;;;0.83;0.83;;;7.60;99.90;;;;;;4938179;29;20248;-61
2024/01/03 06:23:06;;;;;;;1.23;1.13;;;7.50;99.90;;;;;;4938339;29;20425;-61
2024/01/03 06:25:32;;;;;;;0.30;0.30;;;7.50;99.90;;;;;;4938415;29;20356;-61
2024/01/03 06:27:58;;;;;;;0.30;0.30;;;7.40;99.90;;;;;;4938320;29;20409;-61
2024/01/03 06:30:23;;;;;;;1.33;1.33;;;7.30;99.90;;;;;;4938074;29;20174;-61
2024/01/03 06:32:49;;;;;;;0.43;0.43;;;7.30;99.90;;;;;;4937551;29;20640;-61
2024/01/03 06:35:15;;;;;;;0.30;0.30;;;7.30;99.90;;;;;;4937345;29;20178;-60
2024/01/03 06:37:40;;;;;;;0.30;0.30;;;7.50;99.90;;;;;;4955320;29;20721;-61
2024/01/03 06:40:07;;;;;;;0.60;0.60;;;7.30;99.90;;;;;;4956817;29;20219;-61
2024/01/03 06:42:32;;;;;;;1.13;0.40;;;7.40;99.90;;;;;;4956439;29;20427;-60
2024/01/03 06:44:58;;;;;;;1.23;0.60;;;7.60;99.90;;;;;;4957145;29;20188;-61
2024/01/03 06:47:24;;;;;;;0.40;0.40;;;7.60;99.90;;;;;;4957421;28;20269;-61
2024/01/03 06:49:49;;;;;;;5.93;0.80;;;7.50;99.90;;;;;;4957162;29;20661;-61
2024/01/03 06:52:15;;;;;;;0.60;0.60;;;7.40;99.90;;;;;;4956980;29;20216;-61
2024/01/03 06:54:40;;;;;;;0.30;0.30;;;7.50;99.90;;;;;;4956938;29;20231;-61
2024/01/03 06:57:06;;;;;;;0.50;0.50;;;7.40;99.90;;;;;;4956489;28;20777;-61
2024/01/03 06:59:38;;;;;;;13.13;0.80;;;7.40;99.90;;;;;;4957227;29;20196;-61
2024/01/03 07:02:04;;;;;;;1.13;0.77;;;7.50;99.90;;;;;;4957650;29;20176;-61
2024/01/03 07:04:30;;;;;;;0.40;0.40;;;7.30;99.90;;;;;;4956520;29;20196;-61
2024/01/03 07:06:58;;;;;;;0.60;0.50;;;7.30;99.90;;;;;;4957478;28;20260;-61
2024/01/03 07:09:23;;;;;;;0.60;0.60;;;7.40;99.90;;;;;;4938463;29;20211;-61
2024/01/03 07:11:49;;;;;;;0.30;0.30;;;7.50;99.90;;;;;;4926841;29;20182;-61
2024/01/03 07:14:14;;;;;;;1.40;0.60;;;7.40;99.90;;;;;;4935210;29;20211;-61
2024/01/03 07:16:40;;;;;;;0.40;0.40;;;7.30;99.90;;;;;;4938056;29;20186;-61
2024/01/03 07:19:06;;;;;;;0.40;0.40;;;7.40;99.90;;;;;;4937561;29;20556;-61
2024/01/03 07:21:32;;;;;;;0.30;0.30;;;7.40;99.90;;;;;;4937180;29;20180;-61
2024/01/03 07:23:58;;;;;;;0.68;0.68;;;7.40;99.90;;;;;;4937405;29;20564;-61
2024/01/03 07:26:24;;;;;;;4.80;1.37;;;7.40;99.90;;;;;;4935641;29;20520;-61
2024/01/03 07:28:50;;;;;;;0.30;0.30;;;7.40;99.90;;;;;;4936016;29;20544;-61
2024/01/03 07:31:15;;;;;;;1.00;0.63;;;7.30;99.90;;;;;;4946693;29;20604;-61
2024/01/03 07:33:41;;;;;;;1.10;0.50;;;7.30;99.90;;;;;;4954998;29;20169;-61
2024/01/03 07:36:07;;;;;;;0.50;0.50;;;7.30;99.90;;;;;;4955901;28;20201;-61
2024/01/03 07:38:33;;;;;;;0.40;0.40;;;7.40;99.90;;;;;;4956228;29;20166;-61
2024/01/03 07:40:59;;;;;;;0.60;0.50;;;7.50;99.90;;;;;;4931940;29;20214;-61
2024/01/03 07:43:26;;;;;;;0.40;0.40;;;7.60;99.90;;;;;;4917020;29;20238;-61
2024/01/03 07:45:52;;;;;;;0.40;0.40;;;7.70;99.90;;;;;;4917191;29;20221;-61
2024/01/03 07:48:17;;;;;;;0.40;0.40;;;7.70;99.90;;;;;;4917507;29;20677;-61
2024/01/03 07:50:43;;;;;;;0.37;0.37;;;7.80;99.90;;;;;;4917331;29;20667;-61
2024/01/03 07:53:09;;;;;;;0.80;0.80;;;7.80;99.90;;;;;;4917957;29;20418;-61
2024/01/03 07:55:35;;;;;;;0.67;0.60;;;7.70;99.90;;;;;;4917908;29;20178;-61
2024/01/03 07:58:01;;;;;;;0.63;0.63;;;7.70;99.90;;;;;;4917397;29;20970;-61
2024/01/03 08:00:30;;;;;;;0.35;0.35;;;7.70;99.90;;;;;;4917568;29;20186;-61
2024/01/03 08:02:56;;;;;;;0.50;0.50;;;7.70;99.90;;;;;;4917678;29;20187;-61
2024/01/03 08:05:22;;;;;;;2.40;1.15;;;7.60;99.90;;;;;;4917228;29;20167;-61
2024/01/03 08:07:48;;;;;;;0.40;0.40;;;7.50;99.90;;;;;;4917218;29;20206;-61
2024/01/03 08:10:14;;;;;;;2.03;0.57;;;7.60;99.90;;;;;;4916963;29;20281;-61
2024/01/03 08:12:41;;;;;;;0.50;0.50;;;7.70;99.90;;;;;;4916931;29;20179;-61
2024/01/03 08:15:07;;;;;;;1.95;0.93;;;7.60;99.90;;;;;;4916922;29;20175;-61
2024/01/03 08:17:33;;;;;;;0.35;0.35;;;7.70;99.90;;;;;;4917260;29;20198;-61
2024/01/03 08:19:58;;;;;;;0.30;0.30;;;7.60;99.90;;;;;;4916475;29;20205;-61
2024/01/03 08:22:24;;;;;;;4.77;1.80;;;7.50;99.90;;;;;;4917030;29;20190;-61
2024/01/03 08:24:50;;;;;;;0.30;0.30;;;7.50;99.90;;;;;;4917230;29;20179;-61
2024/01/03 08:27:17;;;;;;;2.00;0.97;;;7.70;99.90;;;;;;4916149;29;20270;-60
2024/01/03 08:29:44;;;;;;;0.40;0.40;;;7.60;99.90;;;;;;4915817;29;20211;-60
2024/01/03 08:32:09;;;;;;;0.60;0.60;;;7.60;99.90;;;;;;4916790;29;20182;-61
2024/01/03 08:34:35;;;;;;;0.63;0.63;;;7.70;99.90;;;;;;4916556;29;20178;-61
2024/01/03 08:37:01;;;;;;;0.30;0.30;;;7.60;99.90;;;;;;4916555;29;20197;-61
2024/01/03 08:39:26;;;;;;;1.13;1.03;;;7.60;99.90;;;;;;4916828;29;20561;-61
2024/01/03 08:41:53;;;;;;;0.60;0.60;;;7.60;99.90;;;;;;4922266;29;20250;-61
2024/01/03 08:44:20;;;;;;;0.40;0.40;;;7.50;99.90;;;;;;4924240;29;20542;-61
2024/01/03 08:46:45;;;;;;;0.40;0.40;;;7.40;99.90;;;;;;4917150;29;20258;-62
2024/01/03 08:49:12;;;;;;;1.47;0.50;;;7.50;99.90;;;;;;4917141;29;20202;-61
2024/01/03 08:51:37;;;;;;;1.05;0.60;;;7.60;99.90;;;;;;4916535;29;20167;-61
2024/01/03 08:54:03;;;;;;;1.17;0.80;;;7.60;99.90;;;;;;4916069;29;20203;-62
2024/01/03 08:56:29;;;;;;;0.40;0.40;;;7.70;99.90;;;;;;4915385;29;20280;-61
2024/01/03 08:58:54;;;;;;;0.40;0.40;;;7.60;99.90;;;;;;4918701;29;20201;-61
2024/01/03 09:01:22;;;;;;;0.40;0.40;;;7.70;99.90;;;;;;4919824;29;20197;-62
2024/01/03 09:03:49;;;;;;;0.40;0.40;;;7.70;99.90;;;;;;4919472;29;20194;-62
2024/01/03 09:06:20;;;;;;;0.75;0.75;;;7.80;99.90;;;;;;4919565;29;20225;-62
2024/01/03 09:08:50;;;;;;;0.50;0.50;;;7.70;99.90;;;;;;4919522;29;20237;-62
2024/01/03 09:11:16;;;;;;;0.30;0.30;;;7.70;99.90;;;;;;4919624;29;20237;-62
2024/01/03 09:13:42;;;;;;;0.55;0.55;;;7.80;99.90;;;;;;4919482;29;20593;-62
2024/01/03 09:16:11;;;;;;;0.50;0.50;;;8.00;99.90;;;;;;4919063;29;20198;-62
2024/01/03 09:18:37;;;;;;;2.35;1.95;;;8.00;99.90;;;;;;4919112;29;20185;-62
2024/01/03 09:21:06;;;;;;;3.03;2.77;;;8.00;99.90;;;;;;4919297;29;20238;-62
2024/01/03 09:23:32;;;;;;;0.73;0.73;;;7.90;99.90;;;;;;4919206;29;20193;-62
2024/01/03 09:25:58;;;;;;;0.40;0.40;;;7.70;99.90;;;;;;4919256;29;20207;-62
2024/01/03 09:28:25;;;;;;;0.30;0.30;;;7.60;99.90;;;;;;4919157;29;20251;-62
2024/01/03 09:30:51;;;;;;;1.20;1.10;;;7.50;99.90;;;;;;4918959;29;20568;-62
2024/01/03 09:33:17;;;;;;;0.40;0.40;;;7.50;99.90;;;;;;4919009;29;20269;-62
2024/01/03 09:35:43;;;;;;;0.50;0.50;;;7.60;99.90;;;;;;4918963;29;20596;-62
2024/01/03 09:38:09;;;;;;;0.60;0.60;;;7.70;99.90;;;;;;4918992;29;20175;-62
2024/01/03 09:40:35;;;;;;;0.50;0.50;;;7.80;99.90;;;;;;4918784;29;20191;-62
2024/01/03 09:43:02;;;;;;;0.50;0.50;;;7.80;99.90;;;;;;4919085;29;20179;-62
2024/01/03 09:45:29;;;;;;;0.40;0.40;;;7.90;99.90;;;;;;4918636;29;20179;-62
2024/01/03 09:47:55;;;;;;;0.30;0.30;;;7.80;99.90;;;;;;4918714;29;20163;-62
2024/01/03 09:50:21;;;;;;;0.40;0.40;;;7.90;99.90;;;;;;4918682;29;20221;-62
2024/01/03 09:52:48;;;;;;;1.85;0.63;;;8.00;99.90;;;;;;4918550;29;20180;-62
2024/01/03 09:55:14;;;;;;;0.80;0.40;;;8.00;99.90;;;;;;4918964;29;20171;-61
2024/01/03 09:57:40;;;;;;;1.90;0.60;;;8.00;99.90;;;;;;4918846;29;20221;-61
2024/01/03 10:00:08;;;;;;;2.80;1.58;;;7.90;99.90;;;;;;4919447;29;20421;-62
2024/01/03 10:02:36;;;;;;;0.30;0.30;;;7.70;99.90;;;;;;4918574;29;20187;-62
2024/01/03 10:05:05;;;;;;;0.30;0.30;;;7.60;99.90;;;;;;4918622;29;20190;-62
2024/01/03 10:07:35;;;;;;;0.30;0.30;;;7.60;99.90;;;;;;4918476;29;20205;-62
2024/01/03 10:10:05;;;;;;;0.40;0.40;;;7.60;99.90;;;;;;4918069;29;20206;-62
2024/01/03 10:12:32;;;;;;;2.05;0.75;;;7.70;99.90;;;;;;4918254;29;20269;-62
2024/01/03 10:15:16;;;;;;;0.50;0.40;;;7.60;99.90;;;;;;4918436;29;20206;-62
2024/01/03 10:17:46;;;;;;;0.30;0.30;;;7.60;99.90;;;;;;4918386;29;20198;-62
2024/01/03 10:20:26;;;;;;;0.60;0.43;;;7.70;99.90;;;;;;4918342;29;20437;-62
2024/01/03 10:23:09;;;;;;;0.40;0.40;;;7.70;99.90;;;;;;4917878;29;20183;-62
2024/01/03 10:25:35;;;;;;;4.88;0.65;;;7.70;99.90;;;;;;4918089;29;20183;-62
2024/01/03 10:28:06;;;;;;;4.63;0.60;;;7.80;99.90;;;;;;4918397;29;20572;-62
2024/01/03 10:30:32;;;;;;;0.40;0.40;;;7.80;99.90;;;;;;4917697;29;20222;-62
2024/01/03 10:33:05;;;;;;;1.10;0.98;;;8.00;99.90;;;;;;4917960;29;20179;-62
2024/01/03 10:35:33;;;;;;;0.30;0.30;;;8.10;99.90;;;;;;4917924;29;20167;-62
2024/01/03 10:38:00;;;;;;;0.30;0.30;;;8.20;99.90;;;;;;4917914;29;20175;-62
2024/01/03 10:40:28;;;;;;;1.67;0.50;;;8.10;99.90;;;;;;4917643;29;20270;-62
2024/01/03 10:42:54;;;;;;;0.70;0.70;;;8.20;99.90;;;;;;4917799;29;20213;-62
2024/01/03 10:45:20;;;;;;;1.30;0.40;;;8.10;99.90;;;;;;4917947;29;20550;-62
2024/01/03 10:47:46;;;;;;;0.68;0.57;;;8.10;99.90;;;;;;4917755;29;20273;-62
2024/01/03 10:50:12;;;;;;;0.70;0.40;;;8.10;99.90;;;;;;4917574;29;20210;-62
2024/01/03 10:52:41;;;;;;;0.90;0.90;;;8.10;99.90;;;;;;4917409;29;20830;-62
2024/01/03 10:55:10;;;;;;;0.60;0.52;;;8.10;99.90;;;;;;4918153;29;20419;-62
2024/01/03 10:57:36;;;;;;;0.30;0.30;;;8.10;99.90;;;;;;4918008;29;20727;-61
2024/01/03 11:00:14;;;;;;;1.37;0.40;;;8.10;99.90;;;;;;4918024;29;20178;-62
2024/01/03 11:02:48;;;;;;;4.65;1.27;;;8.20;99.90;;;;;;4917713;29;20411;-62
2024/01/03 11:05:28;;;;;;;0.35;0.35;;;8.10;99.90;;;;;;4917342;29;20193;-61
2024/01/03 11:08:02;;;;;;;1.15;0.50;;;8.00;99.90;;;;;;4917579;29;20570;-62
2024/01/03 11:10:50;;;;;;;1.35;0.57;;;8.00;99.90;;;;;;4916921;29;20197;-62
2024/01/03 11:13:27;;;;;;;0.90;0.90;;;8.10;99.90;;;;;;4917055;29;20262;-62
2024/01/03 11:15:55;;;;;;;0.30;0.30;;;8.00;99.90;;;;;;4916841;29;20195;-62
2024/01/03 11:18:42;;;;;;;0.30;0.30;;;7.90;99.90;;;;;;4918137;29;20171;-62
2024/01/03 11:21:30;;;;;;;0.40;0.40;;;7.60;99.90;;;;;;4916760;29;20170;-62
2024/01/03 11:23:57;;;;;;;0.45;0.45;;;7.50;99.90;;;;;;4917634;29;20320;-62
2024/01/03 11:26:56;;;;;;;0.30;0.30;;;7.50;99.90;;;;;;4917406;29;20679;-62
2024/01/03 11:29:45;;;;;;;0.30;0.30;;;7.70;99.90;;;;;;4917600;29;20206;-62
2024/01/03 11:32:32;;;;;;;0.30;0.30;;;7.90;99.90;;;;;;4917681;29;20166;-62
2024/01/03 11:34:58;;;;;;;0.30;0.30;;;7.80;99.90;;;;;;4917297;29;20196;-62
2024/01/03 11:37:27;;;;;;;0.40;0.30;;;7.70;99.90;;;;;;4917447;29;20197;-62
2024/01/03 11:39:54;;;;;;;0.30;0.30;;;7.80;99.90;;;;;;4916912;29;20179;-62
2024/01/03 11:42:39;;;;;;;1.23;1.13;;;7.80;99.90;;;;;;4916795;29;20556;-61
2024/01/03 11:45:15;;;;;;;0.30;0.30;;;8.10;99.90;;;;;;4917642;29;20186;-62
2024/01/03 11:47:47;;;;;;;0.30;0.30;;;8.00;99.90;;;;;;4916995;29;20222;-62
2024/01/03 11:50:15;;;;;;;0.40;0.40;;;8.00;99.90;;;;;;4916481;29;20215;-62
2024/01/03 11:52:48;;;;;;;0.30;0.30;;;7.90;99.90;;;;;;4917645;29;20557;-62
2024/01/03 11:55:16;;;;;;;1.15;0.50;;;7.80;99.90;;;;;;4917585;29;20262;-62
2024/01/03 11:57:46;;;;;;;0.40;0.40;;;7.70;99.90;;;;;;4917054;29;20649;-63
2024/01/03 12:00:13;;;;;;;0.50;0.50;;;7.70;99.90;;;;;;4914527;29;20270;-62
2024/01/03 12:02:58;;;;;;;0.30;0.30;;;7.60;99.90;;;;;;4916903;29;20181;-62
2024/01/03 12:05:27;;;;;;;0.30;0.30;;;7.70;99.90;;;;;;4917525;29;20244;-62
2024/01/03 12:07:53;;;;;;;5.28;0.57;;;7.60;99.90;;;;;;4916745;29;20568;-62
2024/01/03 12:10:20;;;;;;;0.30;0.30;;;7.70;99.90;;;;;;4917135;29;20295;-63
2024/01/03 12:12:46;;;;;;;1.20;0.50;;;7.80;99.90;;;;;;4917130;29;20183;-63
2024/01/03 12:15:27;;;;;;;0.50;0.50;;;7.90;99.90;;;;;;4917551;29;20179;-63
2024/01/03 12:17:53;;;;;;;2.53;0.50;;;7.90;99.90;;;;;;4917154;29;20174;-63
2024/01/03 12:20:23;;;;;;;0.93;0.70;;;7.90;99.90;;;;;;4916801;29;20736;-63
2024/01/03 12:22:48;;;;;;;0.60;0.50;;;8.00;99.90;;;;;;4916333;29;20198;-63
2024/01/03 12:25:18;;;;;;;0.40;0.40;;;8.10;99.90;;;;;;4918315;29;20179;-62
2024/01/03 12:27:44;;;;;;;0.30;0.30;;;8.00;99.90;;;;;;4918127;29;20578;-62
2024/01/03 12:30:13;;;;;;;0.50;0.50;;;8.10;99.90;;;;;;4917797;29;20298;-62
2024/01/03 12:32:39;;;;;;;1.35;0.60;;;7.90;99.90;;;;;;4920058;29;20554;-62
2024/01/03 12:35:05;;;;;;;0.30;0.30;;;7.70;99.90;;;;;;4922601;29;20233;-62
2024/01/03 12:37:31;;;;;;;0.30;0.30;;;7.80;99.90;;;;;;4922366;29;20190;-62
2024/01/03 12:39:57;;;;;;;0.43;0.43;;;8.00;99.90;;;;;;4922259;29;20762;-62
2024/01/03 12:42:22;;;;;;;0.50;0.50;;;8.10;99.90;;;;;;4920793;29;20177;-61
2024/01/03 12:44:48;;;;;;;0.80;0.80;;;8.30;99.90;;;;;;4921126;29;20418;-62
2024/01/03 12:47:14;;;;;;;1.17;1.17;;;8.30;99.90;;;;;;4920567;29;20262;-62
2024/01/03 12:49:40;;;;;;;1.03;1.00;;;8.30;99.90;;;;;;4920830;29;20737;-62
2024/01/03 12:52:09;;;;;;;0.40;0.40;;;8.40;99.90;;;;;;4921731;29;20174;-62
2024/01/03 12:54:35;;;;;;;0.50;0.50;;;8.50;99.90;;;;;;4922131;29;20183;-62
2024/01/03 12:57:06;;;;;;;0.30;0.30;;;8.60;99.90;;;;;;4953663;28;20209;-62